sensor_id;sensor_type;location;lat;lon;timestamp;temperature;humidity
40630;DHT22;26329;40.388;-3.710;2022-09-28T00:04:54;18.30;45.70
40630;DHT22;26329;40.388;-3.710;2022-09-28T00:14:55;18.00;46.30
40630;DHT22;26329;40.388;-3.710;2022-09-28T00:24:57;17.90;46.80
40630;DHT22;26329;40.388;-3.710;2022-09-28T00:34:59;17.50;46.80
40630;DHT22;26329;40.388;-3.710;2022-09-28T00:45:01;17.30;47.40
40630;DHT22;26329;40.388;-3.710;2022-09-28T00:55:05;17.20;47.90
40630;DHT22;26329;40.388;-3.710;2022-09-28T01:05:09;17.20;47.80
40630;DHT22;26329;40.388;-3.710;2022-09-28T01:15:12;17.10;48.70
40630;DHT22;26329;40.388;-3.710;2022-09-28T01:36:44;16.90;49.20
40630;DHT22;26329;40.388;-3.710;2022-09-28T01:46:17;16.90;49.60
40630;DHT22;26329;40.388;-3.710;2022-09-28T01:56:39;16.70;49.60
40630;DHT22;26329;40.388;-3.710;2022-09-28T02:06:49;16.60;49.90
40630;DHT22;26329;40.388;-3.710;2022-09-28T02:16:53;16.60;50.10
40630;DHT22;26329;40.388;-3.710;2022-09-28T02:26:59;16.50;50.50
40630;DHT22;26329;40.388;-3.710;2022-09-28T02:37:05;16.30;50.80
40630;DHT22;26329;40.388;-3.710;2022-09-28T03:08:04;16.30;51.50
40630;DHT22;26329;40.388;-3.710;2022-09-28T03:18:07;16.30;51.30
40630;DHT22;26329;40.388;-3.710;2022-09-28T03:28:09;16.30;51.50
40630;DHT22;26329;40.388;-3.710;2022-09-28T03:38:11;16.50;51.60
40630;DHT22;26329;40.388;-3.710;2022-09-28T03:48:13;16.60;50.80
40630;DHT22;26329;40.388;-3.710;2022-09-28T03:58:19;16.80;48.90
40630;DHT22;26329;40.388;-3.710;2022-09-28T04:08:21;16.60;49.20
40630;DHT22;26329;40.388;-3.710;2022-09-28T04:18:23;16.50;49.60
40630;DHT22;26329;40.388;-3.710;2022-09-28T04:28:25;16.40;50.30
40630;DHT22;26329;40.388;-3.710;2022-09-28T04:38:45;16.30;50.80
40630;DHT22;26329;40.388;-3.710;2022-09-28T04:48:47;16.30;50.70
40630;DHT22;26329;40.388;-3.710;2022-09-28T04:58:48;16.20;52.00
40630;DHT22;26329;40.388;-3.710;2022-09-28T05:08:52;15.70;52.80
40630;DHT22;26329;40.388;-3.710;2022-09-28T05:18:55;15.40;53.50
40630;DHT22;26329;40.388;-3.710;2022-09-28T05:28:56;15.30;54.00
40630;DHT22;26329;40.388;-3.710;2022-09-28T05:38:58;15.10;54.40
40630;DHT22;26329;40.388;-3.710;2022-09-28T05:48:59;15.10;54.30
40630;DHT22;26329;40.388;-3.710;2022-09-28T05:59:01;15.00;54.90
40630;DHT22;26329;40.388;-3.710;2022-09-28T06:09:06;14.80;55.50
40630;DHT22;26329;40.388;-3.710;2022-09-28T06:19:08;14.70;55.80
40630;DHT22;26329;40.388;-3.710;2022-09-28T06:29:10;14.60;56.10
40630;DHT22;26329;40.388;-3.710;2022-09-28T06:39:13;14.70;56.00
40630;DHT22;26329;40.388;-3.710;2022-09-28T06:49:14;14.90;55.30
40630;DHT22;26329;40.388;-3.710;2022-09-28T06:59:16;15.10;55.20
40630;DHT22;26329;40.388;-3.710;2022-09-28T07:09:18;15.30;54.80
40630;DHT22;26329;40.388;-3.710;2022-09-28T07:19:20;15.60;54.10
40630;DHT22;26329;40.388;-3.710;2022-09-28T07:29:21;16.00;53.60
40630;DHT22;26329;40.388;-3.710;2022-09-28T07:39:23;16.00;53.20
40630;DHT22;26329;40.388;-3.710;2022-09-28T07:49:25;16.30;52.70
40630;DHT22;26329;40.388;-3.710;2022-09-28T07:59:26;16.60;51.80
40630;DHT22;26329;40.388;-3.710;2022-09-28T08:09:29;16.90;51.20
40630;DHT22;26329;40.388;-3.710;2022-09-28T08:19:31;17.30;50.40
40630;DHT22;26329;40.388;-3.710;2022-09-28T08:29:52;17.70;50.20
40630;DHT22;26329;40.388;-3.710;2022-09-28T08:39:53;18.30;49.90
40630;DHT22;26329;40.388;-3.710;2022-09-28T08:49:55;18.60;49.80
40630;DHT22;26329;40.388;-3.710;2022-09-28T08:59:58;19.00;49.60
40630;DHT22;26329;40.388;-3.710;2022-09-28T09:20:24;19.70;48.00
40630;DHT22;26329;40.388;-3.710;2022-09-28T09:41:17;20.10;47.30
40630;DHT22;26329;40.388;-3.710;2022-09-28T10:01:32;20.70;45.10
40630;DHT22;26329;40.388;-3.710;2022-09-28T10:11:41;20.80;44.10
40630;DHT22;26329;40.388;-3.710;2022-09-28T10:21:46;21.10;43.90
40630;DHT22;26329;40.388;-3.710;2022-09-28T10:31:52;21.20;43.80
40630;DHT22;26329;40.388;-3.710;2022-09-28T10:41:54;21.60;43.60
40630;DHT22;26329;40.388;-3.710;2022-09-28T10:51:56;22.00;43.10
40630;DHT22;26329;40.388;-3.710;2022-09-28T11:02:08;22.30;42.40
40630;DHT22;26329;40.388;-3.710;2022-09-28T11:12:23;22.20;42.30
40630;DHT22;26329;40.388;-3.710;2022-09-28T11:32:42;22.60;42.10
40630;DHT22;26329;40.388;-3.710;2022-09-28T11:43:02;22.60;41.70
40630;DHT22;26329;40.388;-3.710;2022-09-28T12:03:24;23.10;40.90
40630;DHT22;26329;40.388;-3.710;2022-09-28T12:13:32;23.20;40.20
40630;DHT22;26329;40.388;-3.710;2022-09-28T12:23:37;23.20;40.30
40630;DHT22;26329;40.388;-3.710;2022-09-28T12:33:45;22.80;40.20
40630;DHT22;26329;40.388;-3.710;2022-09-28T12:44:25;22.50;40.70
40630;DHT22;26329;40.388;-3.710;2022-09-28T12:55:14;22.50;40.50
40630;DHT22;26329;40.388;-3.710;2022-09-28T13:05:21;22.80;39.60
40630;DHT22;26329;40.388;-3.710;2022-09-28T13:15:52;22.70;39.10
40630;DHT22;26329;40.388;-3.710;2022-09-28T13:26:14;23.10;37.60
40630;DHT22;26329;40.388;-3.710;2022-09-28T14:07:19;23.20;37.50
40630;DHT22;26329;40.388;-3.710;2022-09-28T14:37:38;23.40;37.40
40630;DHT22;26329;40.388;-3.710;2022-09-28T14:48:20;23.50;36.90
40630;DHT22;26329;40.388;-3.710;2022-09-28T14:58:27;23.30;37.30
40630;DHT22;26329;40.388;-3.710;2022-09-28T15:08:37;23.20;37.20
40630;DHT22;26329;40.388;-3.710;2022-09-28T15:19:04;23.40;36.50
40630;DHT22;26329;40.388;-3.710;2022-09-28T15:29:16;23.40;36.00
40630;DHT22;26329;40.388;-3.710;2022-09-28T15:39:22;23.30;35.70
40630;DHT22;26329;40.388;-3.710;2022-09-28T15:49:35;23.20;36.60
40630;DHT22;26329;40.388;-3.710;2022-09-28T15:59:40;23.20;35.80
40630;DHT22;26329;40.388;-3.710;2022-09-28T16:20:26;23.10;35.50
40630;DHT22;26329;40.388;-3.710;2022-09-28T16:30:31;23.00;35.90
40630;DHT22;26329;40.388;-3.710;2022-09-28T16:40:33;22.90;35.90
40630;DHT22;26329;40.388;-3.710;2022-09-28T16:50:35;22.70;35.60
40630;DHT22;26329;40.388;-3.710;2022-09-28T17:00:36;22.70;37.70
40630;DHT22;26329;40.388;-3.710;2022-09-28T17:20:50;22.90;35.90
40630;DHT22;26329;40.388;-3.710;2022-09-28T17:30:55;22.80;34.90
40630;DHT22;26329;40.388;-3.710;2022-09-28T17:40:57;22.40;36.00
40630;DHT22;26329;40.388;-3.710;2022-09-28T17:50:58;22.20;36.30
40630;DHT22;26329;40.388;-3.710;2022-09-28T18:01:02;22.00;38.10
40630;DHT22;26329;40.388;-3.710;2022-09-28T18:11:04;22.30;35.90
40630;DHT22;26329;40.388;-3.710;2022-09-28T18:21:06;22.00;36.00
40630;DHT22;26329;40.388;-3.710;2022-09-28T18:31:11;21.70;35.70
40630;DHT22;26329;40.388;-3.710;2022-09-28T18:41:14;21.50;35.90
40630;DHT22;26329;40.388;-3.710;2022-09-28T18:51:15;21.40;35.90
40630;DHT22;26329;40.388;-3.710;2022-09-28T19:01:18;21.30;36.50
40630;DHT22;26329;40.388;-3.710;2022-09-28T19:11:21;21.20;37.50
40630;DHT22;26329;40.388;-3.710;2022-09-28T19:21:25;21.10;37.60
40630;DHT22;26329;40.388;-3.710;2022-09-28T19:31:27;21.00;38.30
40630;DHT22;26329;40.388;-3.710;2022-09-28T19:41:32;20.90;38.80
40630;DHT22;26329;40.388;-3.710;2022-09-28T19:51:54;20.80;39.20
40630;DHT22;26329;40.388;-3.710;2022-09-28T20:01:56;20.80;39.40
40630;DHT22;26329;40.388;-3.710;2022-09-28T20:12:01;20.80;39.50
40630;DHT22;26329;40.388;-3.710;2022-09-28T20:22:03;20.70;39.70
40630;DHT22;26329;40.388;-3.710;2022-09-28T20:32:05;20.70;40.00
40630;DHT22;26329;40.388;-3.710;2022-09-28T20:42:07;20.60;40.70
40630;DHT22;26329;40.388;-3.710;2022-09-28T20:52:09;20.40;41.40
40630;DHT22;26329;40.388;-3.710;2022-09-28T21:02:12;20.30;42.00
40630;DHT22;26329;40.388;-3.710;2022-09-28T21:12:14;20.30;42.30
40630;DHT22;26329;40.388;-3.710;2022-09-28T21:22:16;20.10;42.70
40630;DHT22;26329;40.388;-3.710;2022-09-28T21:32:17;20.00;43.40
40630;DHT22;26329;40.388;-3.710;2022-09-28T21:42:19;20.00;43.30
40630;DHT22;26329;40.388;-3.710;2022-09-28T21:52:21;19.90;43.30
40630;DHT22;26329;40.388;-3.710;2022-09-28T22:02:22;19.80;43.40
40630;DHT22;26329;40.388;-3.710;2022-09-28T22:12:24;19.80;43.90
40630;DHT22;26329;40.388;-3.710;2022-09-28T22:22:25;19.60;44.70
40630;DHT22;26329;40.388;-3.710;2022-09-28T22:32:27;19.70;45.10
40630;DHT22;26329;40.388;-3.710;2022-09-28T22:42:28;19.60;45.50
40630;DHT22;26329;40.388;-3.710;2022-09-28T22:52:30;19.60;45.60
40630;DHT22;26329;40.388;-3.710;2022-09-28T23:02:31;19.50;46.20
40630;DHT22;26329;40.388;-3.710;2022-09-28T23:12:33;19.40;46.30
40630;DHT22;26329;40.388;-3.710;2022-09-28T23:22:35;19.30;47.30
40630;DHT22;26329;40.388;-3.710;2022-09-28T23:32:37;19.10;47.60
40630;DHT22;26329;40.388;-3.710;2022-09-28T23:42:38;19.00;48.20
40630;DHT22;26329;40.388;-3.710;2022-09-28T23:52:39;18.90;48.60
